Time;durP1;ratioP1;P1;durP2;ratioP2;P2;SDS_P1;SDS_P2;PMS_P1;PMS_P2;Temp;Humidity;BMP_temperature;BMP_pressure;BME280_temperature;BME280_humidity;BME280_pressure;Samples;Min_cycle;Max_cycle;Signal;HPM_P1;HPM_P2
2023/08/06 00:00:53;;;;;;;;;;;;;;;17.27;46.82;99919.88;4902545;28;99558;-72
2023/08/06 00:03:19;;;;;;;;;;;;;;;17.27;46.89;99919.06;4873560;28;98024;-74
2023/08/06 00:05:46;;;;;;;;;;;;;;;17.26;46.82;99928.38;4873873;28;98333;-72
2023/08/06 00:08:13;;;;;;;;;;;;;;;17.22;46.92;99922.78;4876050;28;98008;-72
2023/08/06 00:10:41;;;;;;;;;;;;;;;17.19;46.94;99920.69;4897867;28;103338;-72
2023/08/06 00:13:07;;;;;;;;;;;;;;;17.18;47.04;99916.38;4899121;28;99343;-73
2023/08/06 00:15:33;;;;;;;;;;;;;;;17.16;46.86;99905.78;4901888;28;98156;-73
2023/08/06 00:18:00;;;;;;;;;;;;;;;17.16;47.07;99902.28;4905812;28;98538;-74
2023/08/06 00:20:27;;;;;;;;;;;;;;;17.16;47.03;99891.38;4904413;28;98284;-75
2023/08/06 00:22:55;;;;;;;;;;;;;;;17.15;47.14;99896.03;4870186;28;99477;-74
2023/08/06 00:25:22;;;;;;;;;;;;;;;17.16;46.94;99900.34;4871365;28;98493;-74
2023/08/06 00:27:48;;;;;;;;;;;;;;;17.16;47.02;99894.09;4905427;28;98219;-72
2023/08/06 00:30:15;;;;;;;;;;;;;;;17.16;46.87;99888.66;4906214;28;97958;-72
2023/08/06 00:32:42;;;;;;;;;;;;;;;17.15;46.81;99884.34;4869492;28;98038;-74
2023/08/06 00:35:09;;;;;;;;;;;;;;;17.14;46.89;99882.75;4903818;28;98184;-74
2023/08/06 00:37:36;;;;;;;;;;;;;;;17.14;47.06;99871.88;4890255;28;98197;-72
2023/08/06 00:40:05;;;;;;;;;;;;;;;17.13;47.05;99875.69;4874105;28;101194;-74
2023/08/06 00:42:32;;;;;;;;;;;;;;;17.12;47.03;99877.63;4905488;28;99417;-74
2023/08/06 00:44:59;;;;;;;;;;;;;;;17.13;46.92;99870.25;4889541;28;98420;-72
2023/08/06 00:47:26;;;;;;;;;;;;;;;17.12;47.11;99866.72;4894966;28;98015;-72
2023/08/06 00:49:54;;;;;;;;;;;;;;;17.11;47.02;99873.31;4887897;28;99398;-72
2023/08/06 00:52:21;;;;;;;;;;;;;;;17.10;46.77;99866.28;4885793;28;98203;-74
2023/08/06 00:54:47;;;;;;;;;;;;;;;17.09;46.90;99867.38;4886692;28;98333;-73
2023/08/06 00:57:15;;;;;;;;;;;;;;;17.09;47.11;99866.56;4876807;28;97906;-74
2023/08/06 00:59:42;;;;;;;;;;;;;;;17.08;46.92;99863.06;4890408;28;99366;-73
2023/08/06 01:02:09;;;;;;;;;;;;;;;17.07;47.02;99853.31;4888783;28;100471;-72
2023/08/06 01:04:36;;;;;;;;;;;;;;;17.06;47.07;99859.09;4921464;28;98060;-72
2023/08/06 01:07:13;;;;;;;;;;;;;;;17.06;46.97;99864.53;4901904;28;98429;-73
2023/08/06 01:10:00;;;;;;;;;;;;;;;17.06;47.17;99861.81;4904887;28;100493;-72
2023/08/06 01:12:50;;;;;;;;;;;;;;;17.04;47.08;99859.38;4904292;28;98181;-74
2023/08/06 01:15:22;;;;;;;;;;;;;;;17.03;47.00;99851.56;4885559;28;98511;-74
2023/08/06 01:17:49;;;;;;;;;;;;;;;17.03;47.15;99854.28;4890588;28;98229;-74
2023/08/06 01:20:17;;;;;;;;;;;;;;;17.01;47.13;99854.59;4892075;28;98032;-72
2023/08/06 01:22:44;;;;;;;;;;;;;;;17.01;47.26;99843.69;4888807;28;97902;-72
2023/08/06 01:25:11;;;;;;;;;;;;;;;17.01;47.00;99842.91;4902040;28;98158;-72
2023/08/06 01:27:49;;;;;;;;;;;;;;;17.00;47.24;99849.47;4890144;28;98007;-72
2023/08/06 01:30:24;;;;;;;;;;;;;;;17.00;47.19;99838.59;4886324;28;100421;-74
2023/08/06 01:32:53;;;;;;;;;;;;;;;17.00;47.18;99835.88;4890294;28;100179;-74
2023/08/06 01:35:20;;;;;;;;;;;;;;;16.98;47.00;99825.31;4886495;28;98094;-73
2023/08/06 01:37:46;;;;;;;;;;;;;;;16.97;47.15;99812.00;4887973;28;98088;-72
2023/08/06 01:40:13;;;;;;;;;;;;;;;16.95;47.14;99814.28;4885187;28;98213;-74
2023/08/06 01:42:40;;;;;;;;;;;;;;;16.92;47.02;99808.34;4873139;28;98641;-72
2023/08/06 01:45:08;;;;;;;;;;;;;;;16.90;47.10;99810.59;4875788;28;98001;-74
2023/08/06 01:47:35;;;;;;;;;;;;;;;16.89;46.99;99795.38;4881403;28;98035;-74
2023/08/06 01:50:02;;;;;;;;;;;;;;;16.89;47.19;99792.66;4895553;28;98749;-74
2023/08/06 01:52:29;;;;;;;;;;;;;;;16.88;47.21;99785.63;4903359;28;98122;-72
2023/08/06 01:54:56;;;;;;;;;;;;;;;16.88;47.26;99784.81;4888764;28;98130;-74
2023/08/06 01:57:23;;;;;;;;;;;;;;;16.87;47.10;99784.03;4868866;28;97919;-72
2023/08/06 01:59:50;;;;;;;;;;;;;;;16.86;47.12;99778.94;4890412;28;97909;-74
2023/08/06 02:02:17;;;;;;;;;;;;;;;16.88;47.04;99782.09;4890046;28;98043;-74
2023/08/06 02:04:43;;;;;;;;;;;;;;;16.87;47.04;99781.31;4866341;28;98050;-72
2023/08/06 02:07:11;;;;;;;;;;;;;;;16.86;47.13;99779.72;4892224;28;99057;-74
2023/08/06 02:09:38;;;;;;;;;;;;;;;16.86;47.19;99779.72;4874560;28;98605;-74
2023/08/06 02:12:05;;;;;;;;;;;;;;;16.87;47.15;99780.50;4872106;28;98339;-74
2023/08/06 02:14:31;;;;;;;;;;;;;;;16.87;47.30;99783.22;4907731;28;99563;-74
2023/08/06 02:16:59;;;;;;;;;;;;;;;16.85;47.31;99778.09;4904397;28;99099;-74
2023/08/06 02:19:26;;;;;;;;;;;;;;;16.84;47.27;99784.69;4874899;28;99927;-73
2023/08/06 02:21:52;;;;;;;;;;;;;;;16.84;47.22;99781.94;4870810;28;99325;-74
2023/08/06 02:24:19;;;;;;;;;;;;;;;16.84;47.20;99781.94;4886213;28;99342;-72
2023/08/06 02:26:45;;;;;;;;;;;;;;;16.85;47.24;99788.19;4890490;28;97993;-73
2023/08/06 02:29:11;;;;;;;;;;;;;;;16.86;47.27;99793.31;4875709;28;98018;-74
2023/08/06 02:31:38;;;;;;;;;;;;;;;16.87;47.34;99789.47;4893302;28;98241;-73
2023/08/06 02:34:05;;;;;;;;;;;;;;;16.87;47.12;99783.22;4886632;28;97910;-73
2023/08/06 02:36:33;;;;;;;;;;;;;;;16.87;47.20;99780.50;4876598;28;98549;-72
2023/08/06 02:38:59;;;;;;;;;;;;;;;16.87;47.29;99781.31;4869879;28;100452;-73
2023/08/06 02:41:25;;;;;;;;;;;;;;;16.87;47.26;99785.97;4871014;28;97916;-74
2023/08/06 02:43:53;;;;;;;;;;;;;;;16.86;47.16;99779.72;4872205;28;98283;-73
2023/08/06 02:46:20;;;;;;;;;;;;;;;16.87;47.12;99777.78;4883349;28;98510;-72
2023/08/06 02:48:47;;;;;;;;;;;;;;;16.87;47.36;99772.34;4874213;28;98325;-73
2023/08/06 02:51:13;;;;;;;;;;;;;;;16.90;47.35;99771.69;4886550;28;100412;-73
2023/08/06 02:53:40;;;;;;;;;;;;;;;16.89;47.28;99768.16;4884588;28;99290;-73
2023/08/06 02:56:06;;;;;;;;;;;;;;;16.91;47.18;99759.69;4874492;28;99340;-73
2023/08/06 02:58:32;;;;;;;;;;;;;;;16.91;47.16;99759.69;4885790;28;98283;-72
2023/08/06 03:01:06;;;;;;;;;;;;;;;16.90;47.24;99750.72;4889395;28;98071;-73
2023/08/06 03:03:33;;;;;;;;;;;;;;;16.91;47.39;99756.97;4889333;28;97991;-72
2023/08/06 03:06:00;;;;;;;;;;;;;;;16.90;47.17;99753.44;4888912;28;98084;-74
2023/08/06 03:08:27;;;;;;;;;;;;;;;16.90;47.24;99752.66;4870141;28;100748;-74
2023/08/06 03:10:54;;;;;;;;;;;;;;;16.89;47.21;99753.75;4886879;28;99500;-73
2023/08/06 03:13:20;;;;;;;;;;;;;;;16.90;47.23;99756.16;4889624;28;98039;-75
2023/08/06 03:15:55;;;;;;;;;;;;;;;16.90;47.20;99758.88;4871704;28;98939;-72
2023/08/06 03:18:22;;;;;;;;;;;;;;;16.90;47.27;99748.00;4904091;28;98148;-72
2023/08/06 03:20:53;;;;;;;;;;;;;;;16.90;47.25;99741.75;4887325;28;97934;-75
2023/08/06 03:23:19;;;;;;;;;;;;;;;16.89;47.43;99732.78;4870956;28;98109;-73
2023/08/06 03:25:46;;;;;;;;;;;;;;;16.88;47.33;99727.66;4873947;28;98267;-73
2023/08/06 03:28:13;;;;;;;;;;;;;;;16.88;47.38;99717.56;4871136;28;98783;-73
2023/08/06 03:30:39;;;;;;;;;;;;;;;16.87;47.26;99718.72;4874643;28;98180;-73
2023/08/06 03:33:06;;;;;;;;;;;;;;;16.87;47.28;99716.00;4890617;28;98119;-74
2023/08/06 03:35:33;;;;;;;;;;;;;;;16.86;47.34;99717.13;4907137;28;98077;-74
2023/08/06 03:38:00;;;;;;;;;;;;;;;16.84;47.27;99705.75;4893223;28;99096;-73
2023/08/06 03:40:27;;;;;;;;;;;;;;;16.82;47.23;99707.19;4874491;28;98281;-74
2023/08/06 03:42:53;;;;;;;;;;;;;;;16.82;47.22;99704.47;4878531;28;99034;-74
2023/08/06 03:45:22;;;;;;;;;;;;;;;16.82;47.40;99701.75;4877288;28;98057;-75
2023/08/06 03:47:50;;;;;;;;;;;;;;;16.81;47.22;99695.50;4887304;28;98224;-74
2023/08/06 03:50:16;;;;;;;;;;;;;;;16.82;47.42;99686.25;4902849;28;98813;-75
2023/08/06 03:52:45;;;;;;;;;;;;;;;16.83;47.36;99689.75;4890911;28;98087;-74
2023/08/06 03:55:12;;;;;;;;;;;;;;;16.82;47.33;99678.06;4906376;28;98234;-75
2023/08/06 03:57:39;;;;;;;;;;;;;;;16.83;47.33;99676.16;4890554;28;98172;-75
2023/08/06 04:00:08;;;;;;;;;;;;;;;16.84;47.42;99677.75;4905193;28;98304;-75
2023/08/06 04:02:36;;;;;;;;;;;;;;;16.84;47.40;99680.47;4874240;28;97916;-73
2023/08/06 04:05:02;;;;;;;;;;;;;;;16.84;47.32;99673.09;4895498;28;100928;-75
2023/08/06 04:07:29;;;;;;;;;;;;;;;16.85;47.27;99661.06;4905200;28;98385;-75
2023/08/06 04:10:00;;;;;;;;;;;;;;;16.86;47.40;99662.69;4889260;28;97936;-75
2023/08/06 04:12:28;;;;;;;;;;;;;;;16.86;47.36;99659.97;4904926;28;98467;-75
2023/08/06 04:14:55;;;;;;;;;;;;;;;16.87;47.29;99663.47;4880913;28;99033;-75
2023/08/06 04:17:22;;;;;;;;;;;;;;;16.88;47.44;99654.97;4896584;28;98151;-73
2023/08/06 04:19:52;;;;;;;;;;;;;;;16.89;47.33;99655.78;4896736;28;98798;-74
2023/08/06 04:22:21;;;;;;;;;;;;;;;16.89;47.47;99651.13;4877495;28;98286;-75
2023/08/06 04:24:49;;;;;;;;;;;;;;;16.90;47.37;99650.00;4899648;28;98261;-75
2023/08/06 04:27:16;;;;;;;;;;;;;;;16.93;47.37;99643.88;4892732;28;98000;-75
2023/08/06 04:29:43;;;;;;;;;;;;;;;16.95;47.31;99640.84;4909291;28;98200;-74
2023/08/06 04:32:09;;;;;;;;;;;;;;;16.97;47.28;99635.88;4910561;28;98106;-74
2023/08/06 04:34:36;;;;;;;;;;;;;;;16.99;47.26;99621.94;4924257;28;98285;-73
2023/08/06 04:37:03;;;;;;;;;;;;;;;17.00;47.40;99621.59;4880454;28;98313;-73
2023/08/06 04:39:29;;;;;;;;;;;;;;;17.01;47.25;99623.19;4911765;28;98203;-73
2023/08/06 04:41:59;;;;;;;;;;;;;;;17.02;47.38;99621.28;4910309;28;97993;-75
2023/08/06 04:44:26;;;;;;;;;;;;;;;17.03;47.20;99612.00;4876134;28;98269;-73
2023/08/06 04:46:52;;;;;;;;;;;;;;;17.03;47.36;99615.50;4895336;28;97888;-74
2023/08/06 04:49:21;;;;;;;;;;;;;;;17.03;47.19;99612.00;4910642;28;99216;-73
2023/08/06 04:51:47;;;;;;;;;;;;;;;17.03;47.24;99610.06;4896079;28;97831;-75
2023/08/06 04:54:14;;;;;;;;;;;;;;;17.05;47.22;99610.50;4892045;28;98215;-73
2023/08/06 04:56:40;;;;;;;;;;;;;;;17.05;47.45;99610.50;4874461;28;98278;-73
2023/08/06 04:59:06;;;;;;;;;;;;;;;17.06;47.34;99614.84;4873897;28;99502;-72
2023/08/06 05:01:33;;;;;;;;;;;;;;;17.07;47.27;99608.28;4906686;28;98881;-73
2023/08/06 05:04:00;;;;;;;;;;;;;;;17.10;47.35;99609.53;4866863;28;98198;-72
2023/08/06 05:06:26;;;;;;;;;;;;;;;17.13;47.27;99606.13;4903908;28;98179;-75
2023/08/06 05:08:53;;;;;;;;;;;;;;;17.15;47.36;99607.41;4889907;28;98738;-75
2023/08/06 05:11:19;;;;;;;;;;;;;;;17.17;47.19;99605.16;4906033;28;98333;-73
2023/08/06 05:13:47;;;;;;;;;;;;;;;17.19;47.30;99607.53;4913608;28;98361;-75
2023/08/06 05:16:15;;;;;;;;;;;;;;;17.21;47.28;99599.81;4886024;28;98063;-74
2023/08/06 05:18:42;;;;;;;;;;;;;;;17.24;47.30;99603.81;4869041;28;98322;-75
2023/08/06 05:21:09;;;;;;;;;;;;;;;17.31;47.17;99601.38;4904838;28;98036;-75
2023/08/06 05:23:36;;;;;;;;;;;;;;;17.40;47.29;99611.06;4887416;28;99476;-72
2023/08/06 05:26:03;;;;;;;;;;;;;;;17.48;47.31;99609.38;4029848;28;10001094;-72
2023/08/06 05:28:31;;;;;;;;;;;;;;;17.53;47.18;99603.75;4884987;28;98223;-75
2023/08/06 05:30:58;;;;;;;;;;;;;;;17.58;47.16;99600.03;4886214;28;98162;-72
2023/08/06 05:33:26;;;;;;;;;;;;;;;17.61;47.18;99602.09;4892766;28;98096;-75
2023/08/06 05:35:53;;;;;;;;;;;;;;;17.64;47.23;99601.38;4899519;28;98404;-75
2023/08/06 05:38:19;;;;;;;;;;;;;;;17.70;47.09;99597.34;4890637;28;99146;-72
2023/08/06 05:40:45;;;;;;;;;;;;;;;17.74;47.41;99600.97;4871825;28;98527;-71
2023/08/06 05:43:11;;;;;;;;;;;;;;;17.78;47.32;99598.41;4902372;28;98304;-72
2023/08/06 05:45:38;;;;;;;;;;;;;;;17.81;47.22;99590.38;4868125;28;98385;-72
2023/08/06 05:48:05;;;;;;;;;;;;;;;17.85;47.30;99585.84;4892309;28;98183;-72
2023/08/06 05:50:32;;;;;;;;;;;;;;;17.87;47.21;99583.56;4899791;28;98969;-72
2023/08/06 05:52:59;;;;;;;;;;;;;;;17.88;47.20;99579.72;3994330;28;10000951;-75
2023/08/06 05:55:26;;;;;;;;;;;;;;;17.91;47.30;99584.47;4917187;28;99460;-75
2023/08/06 05:57:54;;;;;;;;;;;;;;;17.93;47.16;99580.63;4870029;28;99686;-75
2023/08/06 06:00:22;;;;;;;;;;;;;;;17.93;47.36;99583.34;4011549;28;10000599;-72
2023/08/06 06:02:51;;;;;;;;;;;;;;;17.89;47.27;99581.28;4914759;28;99289;-72
2023/08/06 06:05:17;;;;;;;;;;;;;;;17.87;47.26;99586.28;3996126;28;10000710;-75
2023/08/06 06:07:44;;;;;;;;;;;;;;;17.84;47.46;99584.25;4884190;28;99310;-75
2023/08/06 06:10:11;;;;;;;;;;;;;;;17.84;47.35;99589.69;4872902;28;98359;-72
2023/08/06 06:12:39;;;;;;;;;;;;;;;17.82;47.35;99597.41;4901907;28;98034;-72
2023/08/06 06:15:07;;;;;;;;;;;;;;;17.82;47.49;99589.22;4869698;28;98458;-72
2023/08/06 06:17:37;;;;;;;;;;;;;;;17.81;47.43;99593.09;4907390;28;99652;-75
2023/08/06 06:20:04;;;;;;;;;;;;;;;17.80;47.51;99580.59;4886312;28;98051;-72
2023/08/06 06:22:30;;;;;;;;;;;;;;;17.83;47.45;99581.84;4909138;28;98045;-72
2023/08/06 06:24:57;;;;;;;;;;;;;;;17.84;47.48;99578.78;4885044;28;98097;-72
2023/08/06 06:27:23;;;;;;;;;;;;;;;17.87;47.67;99577.31;4897597;28;98917;-75
2023/08/06 06:29:49;;;;;;;;;;;;;;;17.91;47.40;99579.00;4902949;28;98392;-75
2023/08/06 06:32:16;;;;;;;;;;;;;;;17.95;47.35;99570.16;4870146;28;98306;-72
2023/08/06 06:34:43;;;;;;;;;;;;;;;17.99;47.22;99576.53;4883191;28;98892;-75
2023/08/06 06:37:09;;;;;;;;;;;;;;;18.04;47.06;99576.34;4873041;28;100339;-72
2023/08/06 06:39:39;;;;;;;;;;;;;;;18.08;47.15;99569.88;4888116;28;98572;-75
2023/08/06 06:42:05;;;;;;;;;;;;;;;18.12;47.18;99570.00;4886848;28;98644;-73
2023/08/06 06:44:32;;;;;;;;;;;;;;;18.16;46.93;99576.34;4886826;28;99934;-71
2023/08/06 06:46:59;;;;;;;;;;;;;;;18.19;47.20;99572.94;4882615;28;98571;-75
2023/08/06 06:49:25;;;;;;;;;;;;;;;18.22;47.11;99571.47;4888972;28;99644;-75
2023/08/06 06:51:51;;;;;;;;;;;;;;;18.21;47.16;99562.50;4875161;28;97958;-72
2023/08/06 06:54:19;;;;;;;;;;;;;;;18.24;47.29;99567.28;4873791;28;98179;-75
2023/08/06 06:56:45;;;;;;;;;;;;;;;18.24;47.05;99572.72;4881296;28;99594;-72
2023/08/06 06:59:12;;;;;;;;;;;;;;;18.22;47.05;99574.19;4899792;28;98974;-75
2023/08/06 07:01:38;;;;;;;;;;;;;;;18.20;47.22;99576.47;4903047;28;99343;-72
2023/08/06 07:04:04;;;;;;;;;;;;;;;18.20;47.05;99581.94;4886573;28;98836;-72
2023/08/06 07:06:32;;;;;;;;;;;;;;;18.19;47.15;99583.84;4895396;28;98251;-73
2023/08/06 07:08:59;;;;;;;;;;;;;;;18.19;47.28;99577.59;4902134;28;99204;-75
2023/08/06 07:11:26;;;;;;;;;;;;;;;18.20;47.35;99579.19;4906049;28;97993;-75
2023/08/06 07:13:59;;;;;;;;;;;;;;;18.19;47.08;99583.03;4891167;28;97974;-74
2023/08/06 07:16:27;;;;;;;;;;;;;;;18.17;47.38;99580.66;4869473;28;98144;-73
2023/08/06 07:18:54;;;;;;;;;;;;;;;18.18;47.08;99586.91;4906550;28;98441;-72
2023/08/06 07:21:21;;;;;;;;;;;;;;;18.19;47.18;99594.75;4904182;28;97965;-73
2023/08/06 07:23:49;;;;;;;;;;;;;;;18.19;47.14;99588.50;4902230;28;97877;-72
2023/08/06 07:26:16;;;;;;;;;;;;;;;18.20;47.24;99585.44;4916056;28;99401;-72
2023/08/06 07:28:42;;;;;;;;;;;;;;;18.20;47.36;99588.19;4871525;28;98116;-73
2023/08/06 07:31:09;;;;;;;;;;;;;;;18.21;47.34;99587.03;4892059;28;99017;-73
2023/08/06 07:33:36;;;;;;;;;;;;;;;18.25;47.18;99587.94;4900590;28;100069;-72
2023/08/06 07:36:13;;;;;;;;;;;;;;;18.34;47.10;99585.09;4907233;28;100289;-75
2023/08/06 07:38:40;;;;;;;;;;;;;;;18.45;46.92;99591.72;4907134;28;97913;-73
2023/08/06 07:41:07;;;;;;;;;;;;;;;18.52;47.08;99585.69;4890511;28;98505;-75
2023/08/06 07:43:38;;;;;;;;;;;;;;;18.61;46.69;99578.16;4891281;28;98332;-75
2023/08/06 07:46:05;;;;;;;;;;;;;;;18.72;46.87;99582.06;4887819;28;98304;-72
2023/08/06 07:48:31;;;;;;;;;;;;;;;18.83;46.63;99582.41;4890885;28;98160;-73
2023/08/06 07:51:00;;;;;;;;;;;;;;;18.97;46.51;99579.28;4886756;28;98438;-72
2023/08/06 07:53:29;;;;;;;;;;;;;;;19.11;46.51;99566.84;4905391;28;98676;-75
2023/08/06 07:56:02;;;;;;;;;;;;;;;19.23;46.39;99574.22;4910647;28;98598;-72
2023/08/06 07:58:29;;;;;;;;;;;;;;;19.37;46.24;99579.28;4867897;28;98785;-72
2023/08/06 08:00:56;;;;;;;;;;;;;;;19.50;46.14;99574.59;4879291;28;101025;-72
2023/08/06 08:03:25;;;;;;;;;;;;;;;19.61;46.15;99571.03;4881002;28;99139;-72
2023/08/06 08:05:58;;;;;;;;;;;;;;;19.74;46.21;99563.56;4871800;28;98453;-75
2023/08/06 08:08:25;;;;;;;;;;;;;;;19.88;45.99;99562.34;4873681;28;98694;-76
2023/08/06 08:10:51;;;;;;;;;;;;;;;19.95;46.03;99552.38;4886088;28;98760;-75
2023/08/06 08:13:19;;;;;;;;;;;;;;;20.06;45.98;99552.66;4866600;28;98642;-75
2023/08/06 08:15:48;;;;;;;;;;;;;;;20.16;45.83;99549.41;4869728;28;98778;-73
2023/08/06 08:18:15;;;;;;;;;;;;;;;20.23;45.88;99543.28;4882492;28;98323;-75
2023/08/06 08:20:42;;;;;;;;;;;;;;;20.32;45.80;99546.66;4874790;28;98464;-75
2023/08/06 08:23:10;;;;;;;;;;;;;;;20.39;45.92;99535.84;4907786;28;98367;-73
2023/08/06 08:25:39;;;;;;;;;;;;;;;20.37;45.98;99531.91;4873607;28;98643;-75
2023/08/06 08:28:06;;;;;;;;;;;;;;;20.33;46.01;99529.88;4890544;28;98403;-73
2023/08/06 08:30:34;;;;;;;;;;;;;;;20.37;46.14;99531.91;4909154;28;98504;-72
2023/08/06 08:33:01;;;;;;;;;;;;;;;20.46;45.97;99522.34;4907056;28;98030;-74
2023/08/06 08:35:27;;;;;;;;;;;;;;;20.56;45.87;99530.03;4906128;28;98466;-73
2023/08/06 08:37:54;;;;;;;;;;;;;;;20.61;45.89;99525.44;4874623;28;98262;-75
2023/08/06 08:40:23;;;;;;;;;;;;;;;20.63;45.96;99525.88;4911057;28;98173;-75
2023/08/06 08:42:50;;;;;;;;;;;;;;;20.65;46.01;99515.38;4881343;28;98337;-72
2023/08/06 08:45:17;;;;;;;;;;;;;;;20.67;46.08;99508.38;4895342;28;98656;-72
2023/08/06 08:47:47;;;;;;;;;;;;;;;20.69;45.96;99506.06;4904739;28;98175;-72
2023/08/06 08:50:15;;;;;;;;;;;;;;;20.71;46.06;99501.06;4890724;28;98186;-75
2023/08/06 08:52:41;;;;;;;;;;;;;;;20.71;46.08;99501.06;4905019;28;98286;-73
2023/08/06 08:55:11;;;;;;;;;;;;;;;20.74;46.08;99502.25;4875847;28;98331;-73
2023/08/06 08:57:38;;;;;;;;;;;;;;;20.79;46.01;99500.03;4905422;28;98209;-73
2023/08/06 09:00:07;;;;;;;;;;;;;;;20.86;45.97;99491.16;4872812;28;98139;-74
2023/08/06 09:02:34;;;;;;;;;;;;;;;20.86;46.07;99491.16;4899273;28;98334;-73
2023/08/06 09:05:02;;;;;;;;;;;;;;;20.86;46.06;99493.91;4896608;28;98159;-73
2023/08/06 09:07:30;;;;;;;;;;;;;;;20.81;46.14;99481.28;4899220;28;98093;-73
2023/08/06 09:09:59;;;;;;;;;;;;;;;20.70;46.23;99482.22;4881758;28;98830;-75
2023/08/06 09:12:26;;;;;;;;;;;;;;;20.63;46.35;99484.81;4865414;28;98251;-73
2023/08/06 09:14:53;;;;;;;;;;;;;;;20.66;46.35;99482.16;4898768;28;98181;-73
2023/08/06 09:17:23;;;;;;;;;;;;;;;20.83;46.04;99481.75;4901818;28;99881;-75
2023/08/06 09:19:50;;;;;;;;;;;;;;;20.99;45.96;99475.41;4893936;28;98090;-75
2023/08/06 09:22:17;;;;;;;;;;;;;;;21.08;45.85;99470.50;4863090;28;99380;-76
2023/08/06 09:24:44;;;;;;;;;;;;;;;21.13;45.94;99461.97;4866424;28;97910;-74
2023/08/06 09:27:14;;;;;;;;;;;;;;;21.13;46.02;99469.41;4878753;28;98901;-75
2023/08/06 09:29:42;;;;;;;;;;;;;;;21.09;46.01;99463.84;4882730;28;100293;-75
2023/08/06 09:32:09;;;;;;;;;;;;;;;21.04;46.07;99466.91;4882340;28;98465;-75
2023/08/06 09:34:38;;;;;;;;;;;;;;;21.02;46.11;99467.25;4867071;28;98268;-73
2023/08/06 09:37:06;;;;;;;;;;;;;;;20.97;46.13;99459.31;4883069;28;99043;-74
2023/08/06 09:39:32;;;;;;;;;;;;;;;20.93;46.20;99463.94;4895592;28;102067;-75
2023/08/06 09:42:00;;;;;;;;;;;;;;;20.93;46.25;99466.66;4881705;28;98648;-74
2023/08/06 09:44:28;;;;;;;;;;;;;;;21.04;46.09;99469.63;4864323;28;98213;-75
2023/08/06 09:46:58;;;;;;;;;;;;;;;21.03;45.97;99457.88;4898164;28;99275;-75
2023/08/06 09:49:33;;;;;;;;;;;;;;;21.11;46.01;99449.81;4899926;28;99445;-75
2023/08/06 09:52:00;;;;;;;;;;;;;;;21.11;46.02;99453.34;4919082;28;98285;-75
2023/08/06 09:54:28;;;;;;;;;;;;;;;21.14;46.22;99460.03;4880902;28;100363;-73
2023/08/06 09:56:56;;;;;;;;;;;;;;;21.20;46.07;99451.16;4882356;28;98965;-75
2023/08/06 09:59:26;;;;;;;;;;;;;;;21.24;46.00;99453.97;4864599;28;100299;-73
2023/08/06 10:01:53;;;;;;;;;;;;;;;21.22;46.09;99448.84;4894122;28;98920;-73
2023/08/06 10:04:21;;;;;;;;;;;;;;;21.21;46.06;99451.94;4883513;28;98578;-73
2023/08/06 10:06:48;;;;;;;;;;;;;;;21.20;46.04;99450.38;4896580;28;100268;-75
2023/08/06 10:09:15;;;;;;;;;;;;;;;21.34;45.96;99456.16;4880206;28;98658;-73
2023/08/06 10:11:42;;;;;;;;;;;;;;;21.45;45.72;99451.63;4904853;28;98032;-73
2023/08/06 10:14:12;;;;;;;;;;;;;;;21.53;45.74;99441.59;4885258;28;98372;-73
2023/08/06 10:16:39;;;;;;;;;;;;;;;21.50;45.89;99440.38;4902483;28;98335;-73
2023/08/06 10:19:06;;;;;;;;;;;;;;;21.39;45.98;99444.09;4887043;28;98625;-75
2023/08/06 10:21:34;;;;;;;;;;;;;;;21.28;46.10;99436.44;4887248;28;98506;-75
2023/08/06 10:24:03;;;;;;;;;;;;;;;21.25;46.20;99433.63;4888525;28;98634;-73
2023/08/06 10:26:32;;;;;;;;;;;;;;;21.34;46.08;99434.22;4887939;28;98227;-75
2023/08/06 10:28:59;;;;;;;;;;;;;;;21.43;46.04;99431.25;4885928;28;98250;-73
2023/08/06 10:31:55;;;;;;;;;;;;;;;21.48;45.97;99434.47;4866075;28;98203;-74
2023/08/06 10:34:21;;;;;;;;;;;;;;;21.47;45.98;99430.16;4915858;28;98041;-73
2023/08/06 10:36:48;;;;;;;;;;;;;;;21.48;45.88;99425.44;4881017;28;98421;-76
2023/08/06 10:39:15;;;;;;;;;;;;;;;21.48;46.03;99422.72;4881937;28;99244;-73
2023/08/06 10:41:45;;;;;;;;;;;;;;;21.51;46.06;99422.78;4900941;28;99994;-74
2023/08/06 10:44:14;;;;;;;;;;;;;;;21.52;46.02;99424.34;4886496;28;98360;-76
2023/08/06 10:46:42;;;;;;;;;;;;;;;21.53;46.05;99414.16;4905385;28;98599;-74
2023/08/06 10:49:09;;;;;;;;;;;;;;;21.48;45.98;99412.53;4897770;28;99583;-74
2023/08/06 10:51:39;;;;;;;;;;;;;;;21.51;45.98;99409.06;4885524;28;98417;-73
2023/08/06 10:54:07;;;;;;;;;;;;;;;21.54;45.83;99399.34;4883009;28;99185;-77
2023/08/06 10:56:40;;;;;;;;;;;;;;;21.57;45.92;99401.31;4880484;28;99629;-74
2023/08/06 10:59:07;;;;;;;;;;;;;;;21.64;45.98;99403.41;4865614;28;99567;-73
2023/08/06 11:01:37;;;;;;;;;;;;;;;21.70;45.84;99397.25;4886487;28;100050;-76
2023/08/06 11:04:05;;;;;;;;;;;;;;;21.78;45.81;99393.44;4858518;28;98179;-77
2023/08/06 11:06:33;;;;;;;;;;;;;;;21.86;45.63;99390.81;4882644;28;99232;-73
2023/08/06 11:09:01;;;;;;;;;;;;;;;21.91;45.65;99391.28;4886505;28;98356;-73
2023/08/06 11:11:29;;;;;;;;;;;;;;;21.96;45.55;99388.22;4900704;28;98520;-73
2023/08/06 11:13:58;;;;;;;;;;;;;;;22.03;45.58;99390.28;4883552;28;112309;-74
2023/08/06 11:16:26;;;;;;;;;;;;;;;22.09;45.36;99382.53;4899843;28;100138;-76
2023/08/06 11:18:56;;;;;;;;;;;;;;;22.10;45.55;99376.69;4897138;28;98929;-77
2023/08/06 11:21:24;;;;;;;;;;;;;;;22.18;45.37;99381.13;4881695;28;98168;-77
2023/08/06 11:23:54;;;;;;;;;;;;;;;22.28;45.45;99376.94;4883758;28;99008;-77
2023/08/06 11:26:21;;;;;;;;;;;;;;;22.34;45.22;99371.94;4881321;28;98396;-73
2023/08/06 11:28:48;;;;;;;;;;;;;;;22.43;45.30;99375.97;4884577;28;98250;-73
2023/08/06 11:31:23;;;;;;;;;;;;;;;22.46;45.33;99372.47;4900361;28;98534;-77
2023/08/06 11:33:56;;;;;;;;;;;;;;;22.51;45.32;99368.59;4902125;28;98369;-77
2023/08/06 11:36:40;;;;;;;;;;;;;;;22.55;45.21;99375.72;4900330;28;98171;-77
2023/08/06 11:39:07;;;;;;;;;;;;;;;22.55;45.29;99369.44;4892989;28;98679;-73
2023/08/06 11:41:42;;;;;;;;;;;;;;;22.57;45.35;99371.81;4883552;28;100673;-73
2023/08/06 11:44:13;;;;;;;;;;;;;;;22.56;45.34;99368.28;4883914;28;98287;-73
2023/08/06 11:46:56;;;;;;;;;;;;;;;22.57;45.63;99380.06;4886106;28;98215;-77
2023/08/06 11:49:47;;;;;;;;;;;;;;;22.50;45.57;99367.03;4866055;28;97978;-74
2023/08/06 11:52:20;;;;;;;;;;;;;;;22.35;45.94;99373.50;4904616;28;99691;-77
2023/08/06 11:54:48;;;;;;;;;;;;;;;22.26;45.79;99368.28;4916441;28;97988;-77
2023/08/06 11:57:19;;;;;;;;;;;;;;;22.21;45.91;99371.38;4903951;28;99838;-77
2023/08/06 11:59:49;;;;;;;;;;;;;;;22.13;46.03;99365.00;4869603;28;98527;-77
2023/08/06 12:02:16;;;;;;;;;;;;;;;22.06;46.04;99364.88;4899002;28;98047;-74
2023/08/06 12:05:09;;;;;;;;;;;;;;;21.90;46.26;99366.97;4886301;28;98115;-77
2023/08/06 12:07:44;;;;;;;;;;;;;;;21.73;46.38;99371.03;4886985;28;99372;-74
2023/08/06 12:10:12;;;;;;;;;;;;;;;21.61;46.43;99357.50;4887351;28;98146;-77
2023/08/06 12:12:42;;;;;;;;;;;;;;;21.55;46.48;99363.31;4891300;28;98817;-77
2023/08/06 12:15:10;;;;;;;;;;;;;;;21.56;46.34;99359.41;4904724;28;98407;-76
2023/08/06 12:17:39;;;;;;;;;;;;;;;21.54;46.25;99355.47;4886773;28;98036;-74
2023/08/06 12:20:10;;;;;;;;;;;;;;;21.53;46.20;99360.13;4899541;28;98647;-77
2023/08/06 12:22:40;;;;;;;;;;;;;;;21.50;46.36;99360.91;4872508;28;98546;-74
2023/08/06 12:25:08;;;;;;;;;;;;;;;21.54;46.30;99355.47;4868525;28;97960;-73
2023/08/06 12:27:41;;;;;;;;;;;;;;;21.55;46.13;99359.78;4886622;28;101899;-77
2023/08/06 12:30:09;;;;;;;;;;;;;;;21.54;46.14;99353.53;4871228;28;98744;-77
2023/08/06 12:32:37;;;;;;;;;;;;;;;21.55;46.22;99351.56;4872945;28;98373;-77
2023/08/06 12:35:09;;;;;;;;;;;;;;;21.55;46.15;99348.81;4886795;28;99633;-77
2023/08/06 12:37:38;;;;;;;;;;;;;;;21.56;46.15;99344.91;4886107;28;99675;-73
2023/08/06 12:40:06;;;;;;;;;;;;;;;21.55;46.21;99349.63;4865770;28;98259;-73
2023/08/06 12:42:33;;;;;;;;;;;;;;;21.52;46.14;99344.84;4882146;28;98091;-74
2023/08/06 12:45:00;;;;;;;;;;;;;;;21.51;46.29;99345.22;4870993;28;98245;-74
2023/08/06 12:47:27;;;;;;;;;;;;;;;21.47;46.21;99347.91;4869370;28;99220;-73
2023/08/06 12:49:55;;;;;;;;;;;;;;;21.44;46.23;99339.63;4849244;28;99943;-76